Time;durP1;ratioP1;P1;durP2;ratioP2;P2;SDS_P1;SDS_P2;PMS_P1;PMS_P2;Temp;Humidity;BMP_temperature;BMP_pressure;BME280_temperature;BME280_humidity;BME280_pressure;Samples;Min_cycle;Max_cycle;Signal;HPM_P1;HPM_P2
2023/09/19 00:01:48;;;;;;;0.80;0.80;;;;;;;;;;4985895;28;20277;-52
2023/09/19 00:04:14;;;;;;;1.48;0.75;;;;;;;;;;5008573;28;20180;-52
2023/09/19 00:06:41;;;;;;;1.23;0.65;;;;;;;;;;5005879;28;20181;-52
2023/09/19 00:09:10;;;;;;;5.13;0.98;;;;;;;;;;5000796;28;20233;-52
2023/09/19 00:11:37;;;;;;;0.93;0.90;;;;;;;;;;5001684;28;20574;-52
2023/09/19 00:14:04;;;;;;;3.40;0.90;;;;;;;;;;5001727;28;20185;-52
2023/09/19 00:16:32;;;;;;;1.17;0.80;;;;;;;;;;4997617;28;20204;-52
2023/09/19 00:18:59;;;;;;;1.08;0.70;;;;;;;;;;5004902;28;20177;-52
2023/09/19 00:21:25;;;;;;;1.15;0.77;;;;;;;;;;4988846;28;20196;-52
2023/09/19 00:23:51;;;;;;;1.75;0.70;;;;;;;;;;4983009;28;20205;-52
2023/09/19 00:26:18;;;;;;;1.35;0.85;;;;;;;;;;4992777;28;20778;-52
2023/09/19 00:28:44;;;;;;;1.15;0.77;;;;;;;;;;4997974;28;20291;-52
2023/09/19 00:31:09;;;;;;;1.15;0.80;;;;;;;;;;4999582;28;20316;-52
2023/09/19 00:33:36;;;;;;;1.27;0.85;;;;;;;;;;4995623;28;20213;-52
2023/09/19 00:36:05;;;;;;;2.17;0.80;;;;;;;;;;5000107;28;20180;-52
2023/09/19 00:38:31;;;;;;;2.55;1.00;;;;;;;;;;4989845;28;20195;-52
2023/09/19 00:40:59;;;;;;;2.22;0.90;;;;;;;;;;4987054;28;20430;-52
2023/09/19 00:43:26;;;;;;;1.42;0.75;;;;;;;;;;4996320;28;20177;-52
2023/09/19 00:45:54;;;;;;;2.88;0.90;;;;;;;;;;5010233;28;20858;-52
2023/09/19 00:48:21;;;;;;;1.20;0.80;;;;;;;;;;4993150;28;20700;-52
2023/09/19 00:50:47;;;;;;;1.15;0.90;;;;;;;;;;4998006;28;20185;-52
2023/09/19 00:53:18;;;;;;;1.20;0.95;;;;;;;;;;4991679;28;20185;-52
2023/09/19 00:55:44;;;;;;;1.35;0.80;;;;;;;;;;4991442;28;20176;-52
2023/09/19 00:58:10;;;;;;;3.22;1.02;;;;;;;;;;4998151;28;20180;-52
2023/09/19 01:00:36;;;;;;;1.83;0.80;;;;;;;;;;5005618;28;20611;-52
2023/09/19 01:03:03;;;;;;;0.73;0.55;;;;;;;;;;4998464;28;20264;-52
2023/09/19 01:05:32;;;;;;;1.45;0.70;;;;;;;;;;5004280;28;20204;-52
2023/09/19 01:07:58;;;;;;;1.17;0.70;;;;;;;;;;4996997;28;20205;-52
2023/09/19 01:10:25;;;;;;;1.52;0.82;;;;;;;;;;4989955;28;20181;-52
2023/09/19 01:12:51;;;;;;;0.93;0.93;;;;;;;;;;5012858;28;20690;-52
2023/09/19 01:15:26;;;;;;;2.45;1.20;;;;;;;;;;5007351;28;20181;-52
2023/09/19 01:18:02;;;;;;;1.83;1.00;;;;;;;;;;4992750;28;20199;-52
2023/09/19 01:20:40;;;;;;;2.45;0.80;;;;;;;;;;4996412;28;20192;-52
2023/09/19 01:23:18;;;;;;;3.00;0.90;;;;;;;;;;5006592;28;20507;-52
2023/09/19 01:26:08;;;;;;;1.95;0.88;;;;;;;;;;4987853;28;20192;-52
2023/09/19 01:28:38;;;;;;;1.48;1.00;;;;;;;;;;5000288;28;20207;-52
2023/09/19 01:31:04;;;;;;;2.20;0.77;;;;;;;;;;4992471;28;20185;-52
2023/09/19 01:33:51;;;;;;;2.15;0.80;;;;;;;;;;5006790;28;20188;-52
2023/09/19 01:36:17;;;;;;;1.58;0.70;;;;;;;;;;4998083;28;20173;-52
2023/09/19 01:38:43;;;;;;;1.27;0.73;;;;;;;;;;4991854;28;20189;-52
2023/09/19 01:41:12;;;;;;;0.95;0.70;;;;;;;;;;4991901;28;20241;-52
2023/09/19 01:43:43;;;;;;;0.95;0.70;;;;;;;;;;5013842;28;20215;-52
2023/09/19 01:46:30;;;;;;;0.75;0.70;;;;;;;;;;4994670;28;20180;-52
2023/09/19 01:49:02;;;;;;;1.17;0.90;;;;;;;;;;5002488;28;20215;-52
2023/09/19 01:51:34;;;;;;;0.90;0.65;;;;;;;;;;5001388;28;20587;-52
2023/09/19 01:54:03;;;;;;;1.63;0.80;;;;;;;;;;5008056;28;20507;-53
2023/09/19 01:56:32;;;;;;;2.75;1.13;;;;;;;;;;4999547;28;20467;-52
2023/09/19 01:59:00;;;;;;;1.17;0.75;;;;;;;;;;4998604;28;20224;-52
2023/09/19 02:01:26;;;;;;;1.33;0.60;;;;;;;;;;4989125;28;20193;-53
2023/09/19 02:03:52;;;;;;;1.23;0.80;;;;;;;;;;4993694;28;20185;-52
2023/09/19 02:06:18;;;;;;;0.88;0.70;;;;;;;;;;4994568;28;20199;-52
2023/09/19 02:08:45;;;;;;;1.17;0.90;;;;;;;;;;4993285;28;20217;-52
2023/09/19 02:11:11;;;;;;;1.08;0.70;;;;;;;;;;4989854;28;20223;-51
2023/09/19 02:13:37;;;;;;;1.33;0.60;;;;;;;;;;5010922;28;20560;-52
2023/09/19 02:16:04;;;;;;;2.20;0.75;;;;;;;;;;4998717;28;20535;-52
2023/09/19 02:18:30;;;;;;;0.73;0.57;;;;;;;;;;5001610;28;20252;-52
2023/09/19 02:20:58;;;;;;;1.35;0.82;;;;;;;;;;4984544;28;20185;-52
2023/09/19 02:23:24;;;;;;;1.38;0.90;;;;;;;;;;4991167;28;20235;-52
2023/09/19 02:26:05;;;;;;;0.77;0.60;;;;;;;;;;4990082;28;20456;-52
2023/09/19 02:28:32;;;;;;;2.90;1.10;;;;;;;;;;5009112;28;20242;-52
2023/09/19 02:30:58;;;;;;;1.48;1.00;;;;;;;;;;4986382;28;20247;-52
2023/09/19 02:33:24;;;;;;;1.77;0.95;;;;;;;;;;4991494;28;20510;-52
2023/09/19 02:35:50;;;;;;;1.02;0.85;;;;;;;;;;4986169;28;20177;-52
2023/09/19 02:38:21;;;;;;;1.15;0.80;;;;;;;;;;5005196;28;20563;-52
2023/09/19 02:40:47;;;;;;;1.08;0.65;;;;;;;;;;4993410;28;20275;-52
2023/09/19 02:43:13;;;;;;;1.17;0.80;;;;;;;;;;4995024;28;20660;-52
2023/09/19 02:45:39;;;;;;;1.75;0.80;;;;;;;;;;4993868;28;20193;-52
2023/09/19 02:48:07;;;;;;;0.70;0.70;;;;;;;;;;4992215;28;20198;-52
2023/09/19 02:50:33;;;;;;;2.45;0.88;;;;;;;;;;4992193;28;20185;-52
2023/09/19 02:52:59;;;;;;;0.68;0.68;;;;;;;;;;4997900;28;20243;-52
2023/09/19 02:55:25;;;;;;;0.77;0.60;;;;;;;;;;5002117;28;20235;-52
2023/09/19 02:57:54;;;;;;;1.63;0.80;;;;;;;;;;4995363;28;20631;-52
2023/09/19 03:00:21;;;;;;;1.15;0.85;;;;;;;;;;4997084;28;20224;-52
2023/09/19 03:02:47;;;;;;;0.65;0.65;;;;;;;;;;5011860;28;20185;-52
2023/09/19 03:05:13;;;;;;;1.27;1.00;;;;;;;;;;4995176;28;20191;-52
2023/09/19 03:07:39;;;;;;;0.63;0.60;;;;;;;;;;5001908;28;20208;-52
2023/09/19 03:10:08;;;;;;;1.63;0.82;;;;;;;;;;4986022;28;20178;-54
2023/09/19 03:12:34;;;;;;;1.20;0.98;;;;;;;;;;5011011;28;20176;-52
2023/09/19 03:15:00;;;;;;;1.42;0.70;;;;;;;;;;4999821;28;20192;-52
2023/09/19 03:17:27;;;;;;;0.80;0.80;;;;;;;;;;5005953;28;20602;-52
2023/09/19 03:19:53;;;;;;;1.48;0.93;;;;;;;;;;4993047;28;21822;-52
2023/09/19 03:22:20;;;;;;;0.95;0.90;;;;;;;;;;4994865;28;20524;-52
2023/09/19 03:24:46;;;;;;;3.70;0.80;;;;;;;;;;5006888;28;20247;-49
2023/09/19 03:27:13;;;;;;;0.93;0.80;;;;;;;;;;4998782;28;20204;-50
2023/09/19 03:29:39;;;;;;;1.95;0.80;;;;;;;;;;5006465;28;20189;-51
2023/09/19 03:32:05;;;;;;;1.65;1.25;;;;;;;;;;4995226;28;20192;-50
2023/09/19 03:34:31;;;;;;;13.18;2.58;;;;;;;;;;4990347;28;20185;-49
2023/09/19 03:36:58;;;;;;;26.15;6.07;;;;;;;;;;4988393;28;20184;-50
2023/09/19 03:39:23;;;;;;;24.00;4.85;;;;;;;;;;4993599;28;20223;-50
2023/09/19 03:41:49;;;;;;;19.23;3.53;;;;;;;;;;4988473;28;20237;-50
2023/09/19 03:44:15;;;;;;;13.95;2.90;;;;;;;;;;4991414;28;20181;-50
2023/09/19 03:46:41;;;;;;;32.40;6.72;;;;;;;;;;4995133;28;20190;-50
2023/09/19 03:49:08;;;;;;;33.55;6.78;;;;;;;;;;5008521;28;20217;-50
2023/09/19 03:51:34;;;;;;;27.25;5.68;;;;;;;;;;5001039;28;20219;-48
2023/09/19 03:54:00;;;;;;;13.32;3.17;;;;;;;;;;4993545;28;20173;-43
2023/09/19 03:56:26;;;;;;;8.35;2.58;;;;;;;;;;4999034;28;20176;-57
2023/09/19 03:58:52;;;;;;;6.72;2.03;;;;;;;;;;4997115;28;20608;-56
2023/09/19 04:01:18;;;;;;;10.60;2.17;;;;;;;;;;4991163;28;20182;-50
2023/09/19 04:03:47;;;;;;;5.97;1.80;;;;;;;;;;4996746;28;20196;-48
2023/09/19 04:06:17;;;;;;;10.32;2.22;;;;;;;;;;5001032;28;20227;-51
2023/09/19 04:08:44;;;;;;;7.00;2.20;;;;;;;;;;5003287;28;20583;-52
2023/09/19 04:11:09;;;;;;;8.32;2.20;;;;;;;;;;4994558;28;20181;-51
2023/09/19 04:13:36;;;;;;;8.27;2.05;;;;;;;;;;4998459;28;20199;-49
2023/09/19 04:16:03;;;;;;;5.70;1.70;;;;;;;;;;5001022;28;20192;-47
2023/09/19 04:18:32;;;;;;;4.85;1.42;;;;;;;;;;4996009;28;20214;-49
2023/09/19 04:20:58;;;;;;;4.40;1.40;;;;;;;;;;4993453;28;20185;-48
2023/09/19 04:23:24;;;;;;;4.35;1.60;;;;;;;;;;4996191;28;20223;-50
2023/09/19 04:25:51;;;;;;;3.75;1.30;;;;;;;;;;4991501;28;20238;-51
2023/09/19 04:28:16;;;;;;;5.03;1.50;;;;;;;;;;5010161;28;20204;-50
2023/09/19 04:30:43;;;;;;;3.42;1.20;;;;;;;;;;4997142;28;20281;-53
2023/09/19 04:33:09;;;;;;;4.13;1.40;;;;;;;;;;4992659;28;20170;-53
2023/09/19 04:35:35;;;;;;;2.15;1.17;;;;;;;;;;4991718;28;20181;-49
2023/09/19 04:38:03;;;;;;;4.68;1.20;;;;;;;;;;4994119;28;20285;-50
2023/09/19 04:40:29;;;;;;;4.25;1.42;;;;;;;;;;4993618;28;20189;-48
2023/09/19 04:42:59;;;;;;;2.45;1.08;;;;;;;;;;4993744;28;20185;-48
2023/09/19 04:45:26;;;;;;;1.23;0.90;;;;;;;;;;4981312;28;20182;-49
2023/09/19 04:47:52;;;;;;;3.22;1.20;;;;;;;;;;4989443;28;20198;-49
2023/09/19 04:50:20;;;;;;;3.00;1.60;;;;;;;;;;4994557;28;20256;-48
2023/09/19 04:52:50;;;;;;;5.65;1.15;;;;;;;;;;4993708;28;20173;-49
2023/09/19 04:55:16;;;;;;;1.58;1.00;;;;;;;;;;4987705;28;20185;-49
2023/09/19 04:57:49;;;;;;;6.82;1.20;;;;;;;;;;4994541;28;20275;-49
2023/09/19 05:00:17;;;;;;;1.00;0.90;;;;;;;;;;4996413;28;20489;-49
2023/09/19 05:02:43;;;;;;;3.83;1.50;;;;;;;;;;5003811;28;20188;-49
2023/09/19 05:05:14;;;;;;;5.13;1.08;;;;;;;;;;4997770;28;20463;-49
2023/09/19 05:07:41;;;;;;;1.80;1.10;;;;;;;;;;5005869;28;20235;-48
2023/09/19 05:10:07;;;;;;;2.15;1.13;;;;;;;;;;4995676;28;20235;-49
2023/09/19 05:12:36;;;;;;;1.48;0.85;;;;;;;;;;5010502;28;20196;-49
2023/09/19 05:15:07;;;;;;;0.95;0.90;;;;;;;;;;4991301;28;20217;-49
2023/09/19 05:17:33;;;;;;;1.40;0.90;;;;;;;;;;5004899;28;20206;-49
2023/09/19 05:20:05;;;;;;;0.85;0.85;;;;;;;;;;5005327;28;20213;-49
2023/09/19 05:22:32;;;;;;;4.05;1.10;;;;;;;;;;5010058;28;20177;-49
2023/09/19 05:24:59;;;;;;;0.95;0.82;;;;;;;;;;4997746;28;20279;-48
2023/09/19 05:27:25;;;;;;;1.67;0.90;;;;;;;;;;4994885;28;20201;-49
2023/09/19 05:29:53;;;;;;;1.17;0.80;;;;;;;;;;4992766;28;20575;-49
2023/09/19 05:32:19;;;;;;;1.63;1.02;;;;;;;;;;5003462;28;20184;-49
2023/09/19 05:34:46;;;;;;;3.50;1.02;;;;;;;;;;5003401;28;20215;-49
2023/09/19 05:37:13;;;;;;;5.55;1.33;;;;;;;;;;4991839;28;20183;-49
2023/09/19 05:39:39;;;;;;;0.90;0.90;;;;;;;;;;5006835;28;20181;-49
2023/09/19 05:42:05;;;;;;;1.63;0.98;;;;;;;;;;4991675;28;20201;-49
2023/09/19 05:44:33;;;;;;;2.45;0.82;;;;;;;;;;4992117;28;20185;-49
2023/09/19 05:46:58;;;;;;;2.30;0.95;;;;;;;;;;5002652;28;20465;-49
2023/09/19 05:49:25;;;;;;;1.10;0.90;;;;;;;;;;4994441;28;20207;-49
2023/09/19 05:51:53;;;;;;;1.38;1.20;;;;;;;;;;4985078;28;20182;-49
2023/09/19 05:54:20;;;;;;;0.98;0.80;;;;;;;;;;5001341;28;20267;-49
2023/09/19 05:56:47;;;;;;;0.70;0.70;;;;;;;;;;5000981;28;20189;-49
2023/09/19 05:59:15;;;;;;;2.03;1.00;;;;;;;;;;5001788;28;20192;-49
2023/09/19 06:01:42;;;;;;;1.90;0.80;;;;;;;;;;4986975;28;20178;-49
2023/09/19 06:04:08;;;;;;;2.60;1.00;;;;;;;;;;4992335;28;20185;-49
2023/09/19 06:06:39;;;;;;;3.05;0.93;;;;;;;;;;4993449;28;20203;-49
2023/09/19 06:09:06;;;;;;;2.17;0.80;;;;;;;;;;4989611;28;20491;-49
2023/09/19 06:11:35;;;;;;;1.73;0.80;;;;;;;;;;5008418;28;20173;-49
2023/09/19 06:14:04;;;;;;;1.75;1.00;;;;;;;;;;4997397;28;20612;-48
2023/09/19 06:16:32;;;;;;;1.75;0.80;;;;;;;;;;5008527;28;20200;-49
2023/09/19 06:18:59;;;;;;;0.60;0.60;;;;;;;;;;5004396;28;20212;-49
2023/09/19 06:21:26;;;;;;;0.80;0.80;;;;;;;;;;4993083;28;20569;-49
2023/09/19 06:23:52;;;;;;;1.80;0.80;;;;;;;;;;4988278;28;20189;-49
2023/09/19 06:26:18;;;;;;;3.47;1.20;;;;;;;;;;5009078;28;20196;-49
2023/09/19 06:28:44;;;;;;;1.25;0.73;;;;;;;;;;5002031;28;20208;-49
2023/09/19 06:31:10;;;;;;;1.15;0.90;;;;;;;;;;4998092;28;20276;-49
2023/09/19 06:33:39;;;;;;;0.82;0.70;;;;;;;;;;4987826;28;20174;-49
2023/09/19 06:36:06;;;;;;;1.88;0.93;;;;;;;;;;4991336;28;20302;-48
2023/09/19 06:38:34;;;;;;;1.05;0.73;;;;;;;;;;4993383;28;20209;-49
2023/09/19 06:41:01;;;;;;;0.80;0.80;;;;;;;;;;4990135;28;20219;-49
2023/09/19 06:43:28;;;;;;;1.25;0.90;;;;;;;;;;4990407;28;20206;-49
2023/09/19 06:45:54;;;;;;;1.65;0.80;;;;;;;;;;4994623;28;20426;-49
2023/09/19 06:48:21;;;;;;;1.45;0.82;;;;;;;;;;4997708;28;20228;-49
2023/09/19 06:50:48;;;;;;;1.88;1.10;;;;;;;;;;4986465;28;20170;-48
2023/09/19 06:53:14;;;;;;;3.60;1.48;;;;;;;;;;4996169;28;20179;-49
2023/09/19 06:55:40;;;;;;;1.17;0.73;;;;;;;;;;4994174;28;20177;-49
2023/09/19 06:58:06;;;;;;;1.52;0.90;;;;;;;;;;4995819;28;20189;-48
2023/09/19 07:00:36;;;;;;;2.83;1.10;;;;;;;;;;5001564;28;20185;-49
2023/09/19 07:03:04;;;;;;;0.98;0.80;;;;;;;;;;5007486;28;20711;-49
2023/09/19 07:05:31;;;;;;;3.38;1.00;;;;;;;;;;4998226;28;20184;-49
2023/09/19 07:07:58;;;;;;;1.13;0.77;;;;;;;;;;5008736;28;20477;-49
2023/09/19 07:10:25;;;;;;;1.13;1.00;;;;;;;;;;4997614;28;20548;-49
2023/09/19 07:13:01;;;;;;;2.08;1.17;;;;;;;;;;5002466;28;20268;-48
2023/09/19 07:15:28;;;;;;;0.70;0.70;;;;;;;;;;4983478;28;20209;-48
2023/09/19 07:17:55;;;;;;;1.40;0.90;;;;;;;;;;4998319;28;20204;-49
2023/09/19 07:20:21;;;;;;;1.27;0.90;;;;;;;;;;4995363;28;20218;-49
2023/09/19 07:22:48;;;;;;;3.25;1.10;;;;;;;;;;5012535;28;20200;-49
2023/09/19 07:25:14;;;;;;;1.70;1.00;;;;;;;;;;5005154;28;20583;-49
2023/09/19 07:27:41;;;;;;;2.13;1.00;;;;;;;;;;4999744;28;20200;-49
2023/09/19 07:30:08;;;;;;;2.42;1.00;;;;;;;;;;5003059;28;20177;-49
2023/09/19 07:32:36;;;;;;;1.25;1.00;;;;;;;;;;5004399;28;20185;-49
2023/09/19 07:35:02;;;;;;;1.33;1.00;;;;;;;;;;5000005;28;20189;-49
2023/09/19 07:37:31;;;;;;;1.35;1.10;;;;;;;;;;5017640;28;20183;-49
2023/09/19 07:39:56;;;;;;;1.15;0.70;;;;;;;;;;4999331;28;20296;-49
2023/09/19 07:42:23;;;;;;;2.33;0.70;;;;;;;;;;4998338;28;20656;-49
2023/09/19 07:44:50;;;;;;;1.10;0.85;;;;;;;;;;4997442;28;20180;-49
2023/09/19 07:47:17;;;;;;;2.00;1.17;;;;;;;;;;4985906;28;20197;-49
2023/09/19 07:49:43;;;;;;;1.63;0.90;;;;;;;;;;5002590;28;20260;-49
2023/09/19 07:52:10;;;;;;;1.73;0.93;;;;;;;;;;5001144;28;20573;-48
2023/09/19 07:54:36;;;;;;;1.92;0.90;;;;;;;;;;5005004;28;20180;-49
2023/09/19 07:57:03;;;;;;;2.22;0.95;;;;;;;;;;4996526;28;20181;-49
2023/09/19 07:59:29;;;;;;;1.60;0.98;;;;;;;;;;4996674;28;20184;-49
2023/09/19 08:01:54;;;;;;;1.92;1.05;;;;;;;;;;4999628;28;20195;-49
2023/09/19 08:04:21;;;;;;;1.20;0.90;;;;;;;;;;4995399;28;20200;-49
2023/09/19 08:06:47;;;;;;;3.72;1.10;;;;;;;;;;5002151;28;20603;-49
2023/09/19 08:09:20;;;;;;;1.77;0.70;;;;;;;;;;4995550;28;20260;-49
2023/09/19 08:11:46;;;;;;;3.22;1.00;;;;;;;;;;5002558;28;20169;-48
2023/09/19 08:14:14;;;;;;;1.80;1.00;;;;;;;;;;5004341;28;20186;-49
2023/09/19 08:16:40;;;;;;;1.23;0.80;;;;;;;;;;4990266;28;20205;-49
2023/09/19 08:19:06;;;;;;;1.27;0.85;;;;;;;;;;5012297;28;20196;-49
2023/09/19 08:21:32;;;;;;;1.52;1.40;;;;;;;;;;4994336;28;20192;-49
2023/09/19 08:23:58;;;;;;;1.08;0.82;;;;;;;;;;4991074;28;20209;-49
2023/09/19 08:26:24;;;;;;;1.77;0.98;;;;;;;;;;5002317;28;20207;-49
2023/09/19 08:28:51;;;;;;;0.85;0.73;;;;;;;;;;5002050;28;20204;-48
2023/09/19 08:31:17;;;;;;;1.10;0.70;;;;;;;;;;4997379;28;20564;-48
2023/09/19 08:33:49;;;;;;;1.27;1.00;;;;;;;;;;4992154;28;20174;-49
2023/09/19 08:36:15;;;;;;;0.60;0.60;;;;;;;;;;4994744;28;20180;-48
2023/09/19 08:38:41;;;;;;;0.95;0.60;;;;;;;;;;4996752;28;20177;-49
2023/09/19 08:41:08;;;;;;;3.45;0.90;;;;;;;;;;4991680;28;20237;-49
2023/09/19 08:43:34;;;;;;;3.30;0.75;;;;;;;;;;4994282;28;20173;-49
2023/09/19 08:46:12;;;;;;;0.82;0.65;;;;;;;;;;4990818;28;20239;-49
2023/09/19 08:48:40;;;;;;;2.75;0.40;;;;;;;;;;4979090;28;20217;-50
2023/09/19 08:51:14;;;;;;;0.95;0.70;;;;;;;;;;4998901;28;20181;-49
2023/09/19 08:53:59;;;;;;;1.17;0.70;;;;;;;;;;4991389;28;20185;-49
2023/09/19 08:56:26;;;;;;;3.22;0.63;;;;;;;;;;4992749;28;20180;-49
2023/09/19 08:59:11;;;;;;;1.08;0.77;;;;;;;;;;4995084;28;20456;-49
2023/09/19 09:01:41;;;;;;;0.75;0.60;;;;;;;;;;4992962;28;20184;-49
2023/09/19 09:04:09;;;;;;;0.60;0.57;;;;;;;;;;5003835;28;20181;-50
2023/09/19 09:06:34;;;;;;;1.10;0.60;;;;;;;;;;5007646;28;20184;-49
2023/09/19 09:09:01;;;;;;;1.98;1.00;;;;;;;;;;5005692;28;20622;-50
2023/09/19 09:11:28;;;;;;;1.02;0.80;;;;;;;;;;4998909;28;20188;-49
2023/09/19 09:13:54;;;;;;;1.20;0.85;;;;;;;;;;5007866;28;20546;-49
2023/09/19 09:16:20;;;;;;;0.77;0.77;;;;;;;;;;4991922;28;20206;-49
2023/09/19 09:18:46;;;;;;;0.77;0.70;;;;;;;;;;4997823;28;20279;-49
2023/09/19 09:21:14;;;;;;;0.63;0.63;;;;;;;;;;4996007;28;20462;-50
2023/09/19 09:23:40;;;;;;;1.63;0.60;;;;;;;;;;5005941;28;20202;-49
2023/09/19 09:26:07;;;;;;;0.57;0.57;;;;;;;;;;5005529;28;20200;-49
2023/09/19 09:28:35;;;;;;;2.00;0.70;;;;;;;;;;5003290;28;20220;-49
2023/09/19 09:31:09;;;;;;;0.50;0.50;;;;;;;;;;5002064;28;20233;-49
2023/09/19 09:33:35;;;;;;;0.70;0.60;;;;;;;;;;5007688;28;20222;-49
2023/09/19 09:36:06;;;;;;;0.88;0.50;;;;;;;;;;4999723;28;20178;-49
2023/09/19 09:38:48;;;;;;;0.93;0.60;;;;;;;;;;5003113;28;20272;-49
2023/09/19 09:41:26;;;;;;;0.55;0.52;;;;;;;;;;4995801;28;20185;-49
2023/09/19 09:43:53;;;;;;;0.85;0.50;;;;;;;;;;5007189;28;20454;-49
2023/09/19 09:49:19;;;;;;;1.20;0.57;;;;;;;;;;5006057;28;20211;-49
2023/09/19 09:52:17;;;;;;;1.02;0.60;;;;;;;;;;4992914;28;20181;-49
2023/09/19 09:55:05;;;;;;;0.80;0.80;;;;;;;;;;4994131;28;20224;-49
2023/09/19 09:57:31;;;;;;;1.77;0.65;;;;;;;;;;4998296;28;22353;-49
2023/09/19 10:00:15;;;;;;;1.35;0.70;;;;;;;;;;4987916;28;20269;-49
2023/09/19 10:02:42;;;;;;;0.82;0.50;;;;;;;;;;4998583;28;20208;-49
2023/09/19 10:07:53;;;;;;;1.00;0.60;;;;;;;;;;4992504;28;20242;-49
2023/09/19 10:10:44;;;;;;;0.90;0.43;;;;;;;;;;5006212;28;20222;-49
2023/09/19 10:13:14;;;;;;;3.70;0.93;;;;;;;;;;5002632;28;20181;-49
2023/09/19 10:15:46;;;;;;;1.48;0.70;;;;;;;;;;5000932;28;20200;-49
2023/09/19 10:18:17;;;;;;;1.13;0.70;;;;;;;;;;5007523;28;20442;-49
2023/09/19 10:20:45;;;;;;;1.08;0.80;;;;;;;;;;5005420;28;20177;-49
2023/09/19 10:23:15;;;;;;;2.00;0.70;;;;;;;;;;4986648;28;20189;-49
2023/09/19 10:25:42;;;;;;;1.33;0.70;;;;;;;;;;4987127;28;20251;-50
2023/09/19 10:28:13;;;;;;;1.75;0.63;;;;;;;;;;4992477;28;20244;-49
2023/09/19 10:30:44;;;;;;;1.45;0.63;;;;;;;;;;4993616;28;20181;-49
2023/09/19 10:33:10;;;;;;;0.82;0.68;;;;;;;;;;4992118;28;20181;-49
2023/09/19 10:35:40;;;;;;;1.77;0.80;;;;;;;;;;4994146;28;20204;-49
2023/09/19 10:38:08;;;;;;;0.88;0.70;;;;;;;;;;4991264;28;20227;-49
2023/09/19 10:40:35;;;;;;;1.20;0.77;;;;;;;;;;4994407;28;20312;-49
2023/09/19 10:43:05;;;;;;;2.40;0.82;;;;;;;;;;4995189;28;20181;-49
2023/09/19 10:45:32;;;;;;;1.27;0.80;;;;;;;;;;4994837;28;20213;-49
2023/09/19 10:47:59;;;;;;;1.33;0.70;;;;;;;;;;4993059;28;20213;-49
2023/09/19 10:50:26;;;;;;;1.00;0.77;;;;;;;;;;4992971;28;20255;-49
2023/09/19 10:52:58;;;;;;;0.70;0.70;;;;;;;;;;4994282;28;20219;-49
2023/09/19 10:55:27;;;;;;;2.15;0.73;;;;;;;;;;5004851;28;20232;-49
2023/09/19 10:57:57;;;;;;;0.60;0.60;;;;;;;;;;4993830;28;20189;-49
2023/09/19 11:00:26;;;;;;;1.25;0.80;;;;;;;;;;4987094;28;20177;-49
2023/09/19 11:03:17;;;;;;;1.48;0.98;;;;;;;;;;4994741;28;20192;-49
2023/09/19 11:05:43;;;;;;;1.58;0.80;;;;;;;;;;4991087;28;20181;-49
2023/09/19 11:08:12;;;;;;;1.00;0.90;;;;;;;;;;5001725;28;20242;-49
2023/09/19 11:10:51;;;;;;;4.13;1.05;;;;;;;;;;5008215;28;20254;-49
2023/09/19 11:13:36;;;;;;;1.73;0.80;;;;;;;;;;5007581;28;20187;-49
2023/09/19 11:16:03;;;;;;;1.17;0.93;;;;;;;;;;5001777;28;20197;-49
2023/09/19 11:19:01;;;;;;;1.95;0.90;;;;;;;;;;5009096;28;20176;-49
2023/09/19 11:21:31;;;;;;;3.50;1.15;;;;;;;;;;4989338;28;20196;-49
2023/09/19 11:24:21;;;;;;;1.58;0.93;;;;;;;;;;4991042;28;20197;-50
2023/09/19 11:26:47;;;;;;;1.63;1.00;;;;;;;;;;4999065;28;20803;-49
2023/09/19 11:29:26;;;;;;;2.88;0.98;;;;;;;;;;4994150;28;20296;-49
2023/09/19 11:31:55;;;;;;;2.35;0.90;;;;;;;;;;4998370;28;20180;-49
2023/09/19 11:34:39;;;;;;;2.45;0.90;;;;;;;;;;5003259;28;20169;-49
2023/09/19 11:37:14;;;;;;;2.92;1.00;;;;;;;;;;5008653;28;20548;-49
2023/09/19 11:39:41;;;;;;;1.52;0.93;;;;;;;;;;5013424;28;20191;-49
2023/09/19 11:42:27;;;;;;;1.70;1.17;;;;;;;;;;5001782;28;20213;-49
2023/09/19 11:44:55;;;;;;;1.27;0.93;;;;;;;;;;5003570;28;20169;-49
2023/09/19 11:47:24;;;;;;;4.70;1.45;;;;;;;;;;5011529;28;20176;-49
2023/09/19 11:49:53;;;;;;;4.05;1.25;;;;;;;;;;4999978;28;20260;-50
2023/09/19 11:52:24;;;;;;;5.68;1.00;;;;;;;;;;5001114;28;20186;-51
2023/09/19 11:54:56;;;;;;;1.58;1.05;;;;;;;;;;5001453;28;20259;-50
2023/09/19 11:57:23;;;;;;;2.55;0.93;;;;;;;;;;5002958;28;20778;-58
2023/09/19 11:59:49;;;;;;;1.75;0.98;;;;;;;;;;4992092;28;20311;-49
2023/09/19 12:02:21;;;;;;;5.47;0.90;;;;;;;;;;4992287;28;20549;-48
2023/09/19 12:04:49;;;;;;;2.47;1.08;;;;;;;;;;4995725;28;20479;-51
2023/09/19 12:07:16;;;;;;;1.70;1.45;;;;;;;;;;5010092;28;20195;-51
2023/09/19 12:09:49;;;;;;;2.33;0.93;;;;;;;;;;4995327;28;20263;-51
2023/09/19 12:12:29;;;;;;;3.17;1.10;;;;;;;;;;4999153;28;20194;-51
2023/09/19 12:14:58;;;;;;;1.33;1.00;;;;;;;;;;4993977;28;20213;-52
2023/09/19 12:17:24;;;;;;;1.27;1.10;;;;;;;;;;5003018;28;20185;-51
2023/09/19 12:19:54;;;;;;;1.23;0.73;;;;;;;;;;4994395;28;20185;-51
2023/09/19 12:22:20;;;;;;;2.05;1.15;;;;;;;;;;4996384;28;20188;-51
2023/09/19 12:24:46;;;;;;;1.67;1.05;;;;;;;;;;4993783;28;20573;-50
2023/09/19 12:27:13;;;;;;;2.92;1.15;;;;;;;;;;5001599;28;20271;-51
2023/09/19 12:29:43;;;;;;;1.27;0.95;;;;;;;;;;4986025;28;20193;-51
2023/09/19 12:32:09;;;;;;;1.52;1.00;;;;;;;;;;4990859;28;20173;-51
2023/09/19 12:34:35;;;;;;;1.73;1.20;;;;;;;;;;4990072;28;20213;-51
2023/09/19 12:37:11;;;;;;;1.50;0.90;;;;;;;;;;4996391;28;20520;-51
2023/09/19 12:39:49;;;;;;;1.50;1.13;;;;;;;;;;4994741;28;20181;-51
2023/09/19 12:42:15;;;;;;;1.42;1.20;;;;;;;;;;4990516;28;20453;-51
2023/09/19 12:44:45;;;;;;;1.15;0.98;;;;;;;;;;4988146;28;20233;-51
2023/09/19 12:47:12;;;;;;;1.70;1.58;;;;;;;;;;4995072;28;20200;-51
2023/09/19 12:49:57;;;;;;;1.80;1.08;;;;;;;;;;4996181;28;20232;-51
2023/09/19 12:52:25;;;;;;;1.73;1.15;;;;;;;;;;4992121;28;20187;-51
2023/09/19 12:54:51;;;;;;;2.40;1.10;;;;;;;;;;5007926;28;20554;-51
2023/09/19 12:57:25;;;;;;;2.35;1.02;;;;;;;;;;5008079;28;20396;-51
2023/09/19 12:59:53;;;;;;;2.10;1.08;;;;;;;;;;4992889;28;20190;-51
2023/09/19 13:02:23;;;;;;;1.83;1.25;;;;;;;;;;4992547;28;20184;-51
2023/09/19 13:04:59;;;;;;;4.00;1.20;;;;;;;;;;5004499;28;20180;-51
2023/09/19 13:07:47;;;;;;;4.30;1.33;;;;;;;;;;4990900;28;20173;-51
2023/09/19 13:10:16;;;;;;;2.50;1.50;;;;;;;;;;4996631;28;20600;-51
2023/09/19 13:12:47;;;;;;;3.15;1.70;;;;;;;;;;4996637;28;20185;-51
2023/09/19 13:15:16;;;;;;;3.53;1.30;;;;;;;;;;4983181;28;20219;-51
2023/09/19 13:17:45;;;;;;;3.13;1.27;;;;;;;;;;5002386;28;20181;-51
2023/09/19 13:20:27;;;;;;;1.92;1.30;;;;;;;;;;5007990;28;20610;-51
2023/09/19 13:23:10;;;;;;;3.30;1.63;;;;;;;;;;5014676;28;20184;-51
2023/09/19 13:25:36;;;;;;;3.63;1.20;;;;;;;;;;5005107;28;20205;-51
2023/09/19 13:28:04;;;;;;;3.60;1.65;;;;;;;;;;5000799;28;20207;-51
2023/09/19 13:30:31;;;;;;;2.17;1.33;;;;;;;;;;5006706;28;20186;-51
2023/09/19 13:33:07;;;;;;;2.45;1.60;;;;;;;;;;5012300;28;20166;-51
2023/09/19 13:35:33;;;;;;;1.70;1.40;;;;;;;;;;5003021;28;20210;-51
2023/09/19 13:38:00;;;;;;;1.27;1.17;;;;;;;;;;4998862;28;20185;-51
2023/09/19 13:40:30;;;;;;;1.58;1.30;;;;;;;;;;4995701;28;20209;-51
2023/09/19 13:42:56;;;;;;;2.13;1.55;;;;;;;;;;5005724;28;20198;-51
2023/09/19 13:45:24;;;;;;;2.95;1.40;;;;;;;;;;4999251;28;20589;-51
2023/09/19 13:47:50;;;;;;;3.28;1.48;;;;;;;;;;4998606;28;20196;-51
2023/09/19 13:50:18;;;;;;;1.65;1.50;;;;;;;;;;5002285;28;20178;-51
2023/09/19 13:52:44;;;;;;;5.32;1.73;;;;;;;;;;4991856;28;20193;-51
2023/09/19 13:55:10;;;;;;;2.40;1.50;;;;;;;;;;4999863;28;20260;-51
2023/09/19 13:57:36;;;;;;;2.90;1.50;;;;;;;;;;4983663;28;20273;-51
2023/09/19 14:00:04;;;;;;;1.30;1.17;;;;;;;;;;4995572;28;20231;-51
2023/09/19 14:02:31;;;;;;;3.28;1.90;;;;;;;;;;5004907;28;20553;-51
2023/09/19 14:04:57;;;;;;;1.98;1.58;;;;;;;;;;4994692;28;20449;-51
2023/09/19 14:07:23;;;;;;;2.67;1.60;;;;;;;;;;4993541;28;20185;-51
2023/09/19 14:09:49;;;;;;;3.53;1.92;;;;;;;;;;4998455;28;20587;-51
2023/09/19 14:12:15;;;;;;;5.47;1.90;;;;;;;;;;4992787;28;20177;-51
2023/09/19 14:14:42;;;;;;;5.25;1.80;;;;;;;;;;4988617;28;20265;-51
2023/09/19 14:17:09;;;;;;;3.00;1.90;;;;;;;;;;5002582;28;20183;-51
2023/09/19 14:19:36;;;;;;;2.20;1.88;;;;;;;;;;5008363;28;20571;-51
2023/09/19 14:22:07;;;;;;;4.03;2.17;;;;;;;;;;4989958;28;20260;-51
2023/09/19 14:24:33;;;;;;;2.13;1.23;;;;;;;;;;4996969;28;20235;-51
2023/09/19 14:26:59;;;;;;;4.82;1.88;;;;;;;;;;4995835;28;20196;-51
2023/09/19 14:29:25;;;;;;;2.58;1.75;;;;;;;;;;4993780;28;20213;-51
2023/09/19 14:31:51;;;;;;;3.85;1.50;;;;;;;;;;4994198;28;20215;-51
2023/09/19 14:34:19;;;;;;;3.60;1.60;;;;;;;;;;4988097;28;20534;-51
2023/09/19 14:36:45;;;;;;;2.67;1.60;;;;;;;;;;5001903;28;20181;-51
2023/09/19 14:39:11;;;;;;;4.50;1.30;;;;;;;;;;4984627;28;20498;-51
2023/09/19 14:41:37;;;;;;;4.03;1.80;;;;;;;;;;4997358;28;20267;-51
2023/09/19 14:44:04;;;;;;;2.22;1.30;;;;;;;;;;5001706;28;20189;-51
2023/09/19 14:46:30;;;;;;;3.40;1.80;;;;;;;;;;4993249;28;20228;-51
2023/09/19 14:48:59;;;;;;;3.80;1.65;;;;;;;;;;4989514;28;20498;-51
2023/09/19 14:51:25;;;;;;;2.67;1.90;;;;;;;;;;4986240;28;20170;-51
2023/09/19 14:53:51;;;;;;;3.88;1.95;;;;;;;;;;4996309;28;20181;-51
2023/09/19 14:56:19;;;;;;;2.92;1.73;;;;;;;;;;4997858;28;20200;-51
2023/09/19 14:58:47;;;;;;;3.75;1.77;;;;;;;;;;5000237;28;20203;-51